createdAt,value
2022-08-28T00:00:43.240Z,63.94
2022-08-28T00:03:12.542Z,64.22
2022-08-28T00:05:40.755Z,63.66
2022-08-28T00:08:10.543Z,63.90
2022-08-28T00:10:40.321Z,64.13
2022-08-28T00:13:09.555Z,64.24
2022-08-28T00:15:38.294Z,64.27
2022-08-28T00:18:07.137Z,64.72
2022-08-28T00:20:35.276Z,63.73
2022-08-28T00:23:02.750Z,64.12
2022-08-28T00:25:30.922Z,63.98
2022-08-28T00:27:58.855Z,64.56
2022-08-28T00:30:31.022Z,64.98
2022-08-28T00:33:15.775Z,64.22
2022-08-28T00:35:43.664Z,64.73
2022-08-28T00:38:12.859Z,64.87
2022-08-28T00:40:44.723Z,65.53
2022-08-28T00:43:27.116Z,66.10
2022-08-28T00:45:54.235Z,65.88
2022-08-28T00:48:21.420Z,66.42
2022-08-28T00:51:08.395Z,66.09
2022-08-28T00:53:35.502Z,65.89
2022-08-28T00:56:07.215Z,66.09
2022-08-28T00:58:43.574Z,65.86
2022-08-28T01:01:12.779Z,66.16
2022-08-28T01:03:40.983Z,66.09
2022-08-28T01:06:08.516Z,66.57
2022-08-28T01:08:39.215Z,66.33
2022-08-28T01:11:08.235Z,66.86
2022-08-28T01:13:38.554Z,66.46
2022-08-28T01:16:08.066Z,66.37
2022-08-28T01:18:35.398Z,66.25
2022-08-28T01:21:20.548Z,66.45
2022-08-28T01:24:09.396Z,66.57
2022-08-28T01:26:37.675Z,65.86
2022-08-28T01:29:04.916Z,66.23
2022-08-28T01:31:33.008Z,65.77
2022-08-28T01:34:01.316Z,66.21
2022-08-28T01:36:30.306Z,65.74
2022-08-28T01:39:03.157Z,66.30
2022-08-28T01:41:31.037Z,66.20
2022-08-28T01:43:58.078Z,66.86
2022-08-28T01:46:25.334Z,66.55
2022-08-28T01:48:52.456Z,66.66
2022-08-28T01:51:24.369Z,66.84
2022-08-28T01:53:51.894Z,66.68
2022-08-28T01:56:20.082Z,66.78
2022-08-28T01:58:48.516Z,66.52
2022-08-28T02:01:19.299Z,66.69
2022-08-28T02:03:47.136Z,66.59
2022-08-28T02:06:16.014Z,66.83
2022-08-28T02:08:43.203Z,66.77
2022-08-28T02:11:10.555Z,66.48
2022-08-28T02:13:38.735Z,66.36
2022-08-28T02:16:06.982Z,66.45
2022-08-28T02:18:34.215Z,66.46
2022-08-28T02:21:01.576Z,66.15
2022-08-28T02:23:28.656Z,65.90
2022-08-28T02:25:55.698Z,65.99
2022-08-28T02:28:22.796Z,66.19
2022-08-28T02:30:49.887Z,65.59
2022-08-28T02:33:17.036Z,64.99
2022-08-28T02:35:44.256Z,65.20
2022-08-28T02:38:11.802Z,65.42
2022-08-28T02:40:41.456Z,65.08
2022-08-28T02:43:08.755Z,64.74
2022-08-28T02:45:36.297Z,64.56
2022-08-28T02:48:04.916Z,64.09
2022-08-28T02:50:41.837Z,64.18
2022-08-28T02:53:08.936Z,64.42
2022-08-28T02:55:36.396Z,64.10
2022-08-28T02:58:04.135Z,64.54
2022-08-28T03:00:31.235Z,65.25
2022-08-28T03:02:58.318Z,65.51
2022-08-28T03:05:26.095Z,65.93
2022-08-28T03:07:53.675Z,66.12
2022-08-28T03:10:21.035Z,66.34
2022-08-28T03:12:48.435Z,66.32
2022-08-28T03:15:15.655Z,66.60
2022-08-28T03:17:42.694Z,66.88
2022-08-28T03:20:11.915Z,66.64
2022-08-28T03:22:57.783Z,66.45
2022-08-28T03:25:25.675Z,66.60
2022-08-28T03:27:53.394Z,66.36
2022-08-28T03:30:21.835Z,66.36
2022-08-28T03:32:49.674Z,66.54
2022-08-28T03:35:17.455Z,66.29
2022-08-28T03:37:44.756Z,66.60
2022-08-28T03:40:12.848Z,66.32
2022-08-28T03:42:40.007Z,66.50
2022-08-28T03:45:11.937Z,66.32
2022-08-28T03:47:41.979Z,66.21
2022-08-28T03:50:11.703Z,65.91
2022-08-28T03:52:41.195Z,65.92
2022-08-28T03:55:11.297Z,65.83
2022-08-28T03:57:38.748Z,65.76
2022-08-28T04:00:10.075Z,65.66
2022-08-28T04:02:42.035Z,65.42
2022-08-28T04:05:10.156Z,65.19
2022-08-28T04:07:37.836Z,64.94
2022-08-28T04:10:05.677Z,65.10
2022-08-28T04:12:35.215Z,64.57
2022-08-28T04:15:06.364Z,64.32
2022-08-28T04:17:34.255Z,64.64
2022-08-28T04:20:01.189Z,64.56
2022-08-28T04:22:30.294Z,64.61
2022-08-28T04:24:57.244Z,64.56
2022-08-28T04:27:24.444Z,64.64
2022-08-28T04:29:51.726Z,64.77
2022-08-28T04:32:18.797Z,64.80
2022-08-28T04:34:46.045Z,64.33
2022-08-28T04:37:13.286Z,64.69
2022-08-28T04:39:40.565Z,64.99
2022-08-28T04:42:07.764Z,64.87
2022-08-28T04:44:35.284Z,65.01
2022-08-28T04:47:02.845Z,65.53
2022-08-28T04:49:33.965Z,65.37
2022-08-28T04:52:01.329Z,65.29
2022-08-28T04:54:28.662Z,65.40
2022-08-28T04:56:56.044Z,65.48
2022-08-28T04:59:24.333Z,65.43
2022-08-28T05:01:52.217Z,65.44
2022-08-28T05:04:20.412Z,65.28
2022-08-28T05:06:48.407Z,65.77
2022-08-28T05:09:18.694Z,65.69
2022-08-28T05:11:48.015Z,65.78
2022-08-28T05:14:16.584Z,65.54
2022-08-28T05:16:49.382Z,65.51
2022-08-28T05:19:18.739Z,65.41
2022-08-28T05:21:46.538Z,64.75
2022-08-28T05:24:14.207Z,64.69
2022-08-28T05:26:42.208Z,64.30
2022-08-28T05:29:10.606Z,63.86
2022-08-28T05:31:39.440Z,64.23
2022-08-28T05:34:07.690Z,64.30
2022-08-28T05:36:37.131Z,63.78
2022-08-28T05:39:07.686Z,63.61
2022-08-28T05:41:36.005Z,63.18
2022-08-28T05:44:06.889Z,62.98
2022-08-28T05:46:36.435Z,62.91
2022-08-28T05:49:09.096Z,63.22
2022-08-28T05:51:40.567Z,62.91
2022-08-28T05:54:08.927Z,62.86
2022-08-28T05:56:38.807Z,63.02
2022-08-28T05:59:09.405Z,62.75
2022-08-28T06:01:43.500Z,61.86
2022-08-28T06:04:19.012Z,61.64
2022-08-28T06:06:47.471Z,61.19
2022-08-28T06:09:19.542Z,61.02
2022-08-28T06:11:47.811Z,60.72
2022-08-28T06:14:18.967Z,60.83
2022-08-28T06:16:50.845Z,60.76
2022-08-28T06:19:19.415Z,60.53
2022-08-28T06:21:48.575Z,60.66
2022-08-28T06:24:15.925Z,60.08
2022-08-28T06:26:43.604Z,60.36
2022-08-28T06:29:15.901Z,61.04
2022-08-28T06:31:43.690Z,60.88
2022-08-28T06:34:11.289Z,60.66
2022-08-28T06:36:42.207Z,61.81
2022-08-28T06:39:11.651Z,61.97
2022-08-28T06:41:43.154Z,62.28
2022-08-28T06:44:20.207Z,62.34
2022-08-28T06:46:49.374Z,62.81
2022-08-28T06:49:16.967Z,63.13
2022-08-28T06:51:44.292Z,62.67
2022-08-28T06:54:12.094Z,62.42
2022-08-28T06:56:39.392Z,63.01
2022-08-28T06:59:06.728Z,62.26
2022-08-28T07:01:37.805Z,62.49
2022-08-28T07:04:09.245Z,62.49
2022-08-28T07:06:41.327Z,61.57
2022-08-28T07:09:11.480Z,60.62
2022-08-28T07:11:39.606Z,60.48
2022-08-28T07:14:07.207Z,60.66
2022-08-28T07:16:38.596Z,60.59
2022-08-28T07:19:07.859Z,60.76
2022-08-28T07:21:42.528Z,60.19
2022-08-28T07:24:12.335Z,59.79
2022-08-28T07:26:41.417Z,58.31
2022-08-28T07:29:11.271Z,58.39
2022-08-28T07:31:45.166Z,57.99
2022-08-28T07:34:14.567Z,56.81
2022-08-28T07:36:42.846Z,56.64
2022-08-28T07:39:11.518Z,56.23
2022-08-28T07:41:42.999Z,56.25
2022-08-28T07:44:31.898Z,55.78
2022-08-28T07:47:02.528Z,54.97
2022-08-28T07:49:30.021Z,54.95
2022-08-28T07:51:57.654Z,54.16
2022-08-28T07:54:24.926Z,54.46
2022-08-28T07:56:52.966Z,53.99
2022-08-28T07:59:20.487Z,54.40
2022-08-28T08:01:51.193Z,54.28
2022-08-28T08:04:20.649Z,53.46
2022-08-28T08:06:47.885Z,53.09
2022-08-28T08:09:18.130Z,53.38
2022-08-28T08:11:46.616Z,53.38
2022-08-28T08:14:15.485Z,53.04
2022-08-28T08:16:45.086Z,53.02
2022-08-28T08:19:16.807Z,53.22
2022-08-28T08:21:46.773Z,53.08
2022-08-28T08:24:20.980Z,53.06
2022-08-28T08:26:56.517Z,52.08
2022-08-28T08:29:32.371Z,51.41
2022-08-28T08:32:06.224Z,50.77
2022-08-28T08:34:39.014Z,50.50
2022-08-28T08:37:07.045Z,50.32
2022-08-28T08:39:35.892Z,49.69
2022-08-28T08:42:05.845Z,49.67
2022-08-28T08:44:46.744Z,48.88
2022-08-28T08:47:47.765Z,47.87
2022-08-28T08:50:20.935Z,48.15
2022-08-28T08:53:06.926Z,48.12
2022-08-28T08:55:45.245Z,48.02
2022-08-28T08:58:24.207Z,47.88
2022-08-28T09:01:10.805Z,47.62
2022-08-28T09:03:53.847Z,47.38
2022-08-28T09:06:41.968Z,47.11
2022-08-28T09:09:27.445Z,46.64
2022-08-28T09:11:59.165Z,45.38
2022-08-28T09:14:36.610Z,46.12
2022-08-28T09:17:06.006Z,45.99
2022-08-28T09:19:33.290Z,46.03
2022-08-28T09:22:01.605Z,45.82
2022-08-28T09:24:35.808Z,45.54
2022-08-28T09:27:23.768Z,46.04
2022-08-28T09:30:07.703Z,46.62
2022-08-28T09:32:44.014Z,46.03
2022-08-28T09:35:33.168Z,46.74
2022-08-28T09:38:27.520Z,46.00
2022-08-28T09:41:29.897Z,45.97
2022-08-28T09:43:57.567Z,45.73
2022-08-28T09:46:32.784Z,44.48
2022-08-28T09:49:14.524Z,45.39
2022-08-28T09:51:42.286Z,44.18
2022-08-28T09:54:19.445Z,44.76
2022-08-28T09:56:47.805Z,43.18
2022-08-28T09:59:18.324Z,43.32
2022-08-28T10:02:06.816Z,43.03
2022-08-28T10:04:36.737Z,42.24
2022-08-28T10:07:18.685Z,42.56
2022-08-28T10:10:06.462Z,43.27
2022-08-28T10:13:01.767Z,43.61
2022-08-28T10:15:50.223Z,43.01
2022-08-28T10:18:26.487Z,43.11
2022-08-28T10:21:06.168Z,42.55
2022-08-28T10:23:42.245Z,42.62
2022-08-28T10:26:30.685Z,42.52
2022-08-28T10:29:42.538Z,42.56
2022-08-28T10:32:47.686Z,42.45
2022-08-28T10:35:21.894Z,41.25
2022-08-28T10:37:48.973Z,41.78
2022-08-28T10:40:23.461Z,41.84
2022-08-28T10:42:59.606Z,41.20
2022-08-28T10:45:28.726Z,41.55
2022-08-28T10:48:05.221Z,40.77
2022-08-28T10:50:47.447Z,40.94
2022-08-28T10:53:19.568Z,40.33
2022-08-28T10:55:58.407Z,40.65
2022-08-28T10:58:27.767Z,40.66
2022-08-28T11:13:42.290Z,39.71
2022-08-28T11:16:23.424Z,39.40
2022-08-28T11:19:19.412Z,40.09
2022-08-28T11:22:08.806Z,39.57
2022-08-28T11:25:02.349Z,39.91
2022-08-28T11:27:37.580Z,39.83
2022-08-28T11:30:11.295Z,38.74
2022-08-28T11:32:57.328Z,38.54
2022-08-28T11:35:30.697Z,38.77
2022-08-28T11:37:59.017Z,39.50
2022-08-28T11:40:28.886Z,38.54
2022-08-28T11:43:17.018Z,37.37
2022-08-28T11:45:47.673Z,37.54
2022-08-28T11:48:33.807Z,37.70
2022-08-28T11:51:07.336Z,37.26
2022-08-28T11:53:55.087Z,37.07
2022-08-28T11:56:52.965Z,36.96
2022-08-28T11:59:23.058Z,36.83
2022-08-28T12:01:51.372Z,36.46
2022-08-28T12:04:22.084Z,36.59
2022-08-28T12:07:14.367Z,36.11
2022-08-28T12:09:47.568Z,36.42
2022-08-28T12:12:23.533Z,36.41
2022-08-28T12:14:56.485Z,35.92
2022-08-28T12:17:26.868Z,35.67
2022-08-28T12:20:10.812Z,35.34
2022-08-28T12:22:50.253Z,35.66
2022-08-28T12:25:28.006Z,34.96
2022-08-28T12:27:58.648Z,34.37
2022-08-28T12:30:48.950Z,32.57
2022-08-28T12:33:55.533Z,32.60
2022-08-28T12:36:26.965Z,31.84
2022-08-28T12:38:56.687Z,32.21
2022-08-28T12:41:25.215Z,32.91
2022-08-28T12:43:57.847Z,32.53
2022-08-28T12:46:30.397Z,32.04
2022-08-28T12:49:00.406Z,32.51
2022-08-28T12:51:28.809Z,32.85
2022-08-28T12:54:08.045Z,32.12
2022-08-28T12:56:38.207Z,32.08
2022-08-28T12:59:36.021Z,32.38
2022-08-28T13:02:08.329Z,31.37
2022-08-28T13:04:38.885Z,30.72
2022-08-28T13:07:18.845Z,30.49
2022-08-28T13:09:50.865Z,31.09
2022-08-28T13:12:44.106Z,30.95
2022-08-28T13:15:44.849Z,30.23
2022-08-28T13:18:36.684Z,29.40
2022-08-28T13:21:25.556Z,29.44
2022-08-28T13:24:23.902Z,29.17
2022-08-28T13:27:02.365Z,28.71
2022-08-28T13:29:30.486Z,29.08
2022-08-28T13:32:01.405Z,29.53
2022-08-28T13:34:31.092Z,30.21
2022-08-28T13:37:14.718Z,30.79
2022-08-28T13:39:47.845Z,30.87
2022-08-28T13:42:17.252Z,31.41
2022-08-28T13:44:56.447Z,32.46
2022-08-28T13:47:23.724Z,33.08
2022-08-28T13:49:51.014Z,34.10
2022-08-28T13:52:18.325Z,34.61
2022-08-28T13:54:45.845Z,34.64
2022-08-28T13:57:14.009Z,34.55
2022-08-28T13:59:41.926Z,34.50
2022-08-28T14:02:31.238Z,35.34
2022-08-28T14:04:58.886Z,36.23
2022-08-28T14:07:26.051Z,36.65
2022-08-28T14:09:56.453Z,37.08
2022-08-28T14:12:30.705Z,37.36
2022-08-28T14:15:02.007Z,38.20
2022-08-28T14:17:29.849Z,38.38
2022-08-28T14:19:56.885Z,38.57
2022-08-28T14:22:24.127Z,39.11
2022-08-28T14:24:51.446Z,38.75
2022-08-28T14:27:18.814Z,38.97
2022-08-28T14:29:46.411Z,39.61
2022-08-28T14:32:13.743Z,40.17
2022-08-28T14:34:41.608Z,40.41
2022-08-28T14:37:08.856Z,41.08
2022-08-28T14:39:36.128Z,41.53
2022-08-28T14:42:06.809Z,42.98
2022-08-28T14:44:40.492Z,43.45
2022-08-28T14:47:07.649Z,43.63
2022-08-28T14:49:34.854Z,43.81
2022-08-28T14:52:02.340Z,44.81
2022-08-28T14:54:29.605Z,45.43
2022-08-28T14:56:57.331Z,46.27
2022-08-28T14:59:27.770Z,46.50
2022-08-28T15:01:58.775Z,47.36
2022-08-28T15:04:28.475Z,46.86
2022-08-28T15:06:58.726Z,48.68
2022-08-28T15:09:26.886Z,48.50
2022-08-28T15:11:54.735Z,49.23
2022-08-28T15:14:22.558Z,48.64
2022-08-28T15:16:50.035Z,49.87
2022-08-28T15:19:18.333Z,49.39
2022-08-28T15:21:48.844Z,48.97
2022-08-28T15:24:18.734Z,49.24
2022-08-28T15:26:47.133Z,48.51
2022-08-28T15:29:14.808Z,48.23
2022-08-28T15:31:46.182Z,49.53
2022-08-28T15:34:17.886Z,49.47
2022-08-28T15:36:54.540Z,50.47
2022-08-28T15:39:41.726Z,49.98
2022-08-28T15:42:10.289Z,50.25
2022-08-28T15:44:37.823Z,50.59
2022-08-28T15:47:05.445Z,50.57
2022-08-28T15:49:46.685Z,50.77
2022-08-28T15:52:18.576Z,50.85
2022-08-28T15:54:45.931Z,52.15
2022-08-28T15:57:13.259Z,51.87
2022-08-28T15:59:48.914Z,52.02
2022-08-28T16:02:19.657Z,52.17
2022-08-28T16:04:47.168Z,52.70
2022-08-28T16:07:14.775Z,52.75
2022-08-28T16:09:42.165Z,53.24
2022-08-28T16:12:09.445Z,53.24
2022-08-28T16:14:36.927Z,53.91
2022-08-28T16:17:05.794Z,53.98
2022-08-28T16:19:40.103Z,55.12
2022-08-28T16:22:08.285Z,54.96
2022-08-28T16:27:03.045Z,54.69
2022-08-28T16:29:30.303Z,54.02
2022-08-28T16:31:57.515Z,54.20
2022-08-28T16:34:30.793Z,54.96
2022-08-28T16:37:00.138Z,55.02
2022-08-28T16:39:27.625Z,54.69
2022-08-28T16:41:54.896Z,54.55
2022-08-28T16:44:25.647Z,54.37
2022-08-28T16:46:54.553Z,54.53
2022-08-28T16:49:23.048Z,54.23
2022-08-28T16:51:50.294Z,54.25
2022-08-28T16:54:21.811Z,54.96
2022-08-28T16:56:49.885Z,55.00
2022-08-28T16:59:23.397Z,54.57
2022-08-28T17:01:53.898Z,53.82
2022-08-28T17:04:22.373Z,53.80
2022-08-28T17:06:50.086Z,53.60
2022-08-28T17:09:17.286Z,53.70
2022-08-28T17:11:51.530Z,53.26
2022-08-28T17:14:20.006Z,53.54
2022-08-28T17:16:48.742Z,53.23
2022-08-28T17:19:16.181Z,53.02
2022-08-28T17:22:03.329Z,53.32
2022-08-28T17:24:47.215Z,53.23
2022-08-28T17:27:22.599Z,53.30
2022-08-28T17:29:50.966Z,53.11
2022-08-28T17:32:18.046Z,52.72
2022-08-28T17:34:45.527Z,53.42
2022-08-28T17:37:13.526Z,53.72
2022-08-28T17:39:40.766Z,53.70
2022-08-28T17:42:08.084Z,53.94
2022-08-28T17:44:35.728Z,54.56
2022-08-28T17:47:03.104Z,54.14
2022-08-28T17:49:30.566Z,54.57
2022-08-28T17:51:57.926Z,55.08
2022-08-28T17:54:25.965Z,55.26
2022-08-28T17:56:53.451Z,55.22
2022-08-28T17:59:21.606Z,55.86
2022-08-28T18:01:49.645Z,56.40
2022-08-28T18:04:23.881Z,56.64
2022-08-28T18:06:54.922Z,57.14
2022-08-28T18:09:23.610Z,57.44
2022-08-28T18:11:51.485Z,57.76
2022-08-28T18:14:18.686Z,57.23
2022-08-28T18:16:45.973Z,57.83
2022-08-28T18:19:14.045Z,57.59
2022-08-28T18:21:41.375Z,58.28
2022-08-28T18:24:13.161Z,58.68
2022-08-28T18:26:42.047Z,58.99
2022-08-28T18:29:09.244Z,59.58
2022-08-28T18:31:36.615Z,60.48
2022-08-28T18:34:03.969Z,60.45
2022-08-28T18:36:31.405Z,60.46
2022-08-28T18:38:58.604Z,60.73
2022-08-28T18:41:43.086Z,60.74
2022-08-28T18:44:15.010Z,61.26
2022-08-28T18:46:43.599Z,61.23
2022-08-28T18:49:13.055Z,61.48
2022-08-28T18:51:43.611Z,61.23
2022-08-28T18:54:13.529Z,61.08
2022-08-28T18:56:44.485Z,60.66
2022-08-28T18:59:12.325Z,60.67
2022-08-28T19:01:39.933Z,61.26
2022-08-28T19:04:08.326Z,61.35
2022-08-28T19:06:36.445Z,61.12
2022-08-28T19:09:05.649Z,61.03
2022-08-28T19:11:33.526Z,60.89
2022-08-28T19:14:03.658Z,60.77
2022-08-28T19:16:32.384Z,60.58
2022-08-28T19:19:01.219Z,60.14
2022-08-28T19:21:28.503Z,60.31
2022-08-28T19:23:56.458Z,60.58
2022-08-28T19:26:24.970Z,60.61
2022-08-28T19:28:52.258Z,60.63
2022-08-28T19:31:19.673Z,60.57
2022-08-28T19:33:47.968Z,60.34
2022-08-28T19:36:15.767Z,60.70
2022-08-28T19:38:43.057Z,60.60
2022-08-28T19:41:13.204Z,60.73
2022-08-28T19:43:43.063Z,60.51
2022-08-28T19:46:18.465Z,60.61
2022-08-28T19:48:49.052Z,60.76
2022-08-28T19:51:17.556Z,60.42
2022-08-28T19:53:58.719Z,60.64
2022-08-28T19:56:28.626Z,60.24
2022-08-28T19:59:01.935Z,60.82
2022-08-28T20:01:32.749Z,60.40
2022-08-28T20:04:02.856Z,61.19
2022-08-28T20:06:33.045Z,61.02
2022-08-28T20:09:01.827Z,61.42
2022-08-28T20:11:30.476Z,61.40
2022-08-28T20:14:04.660Z,61.46
2022-08-28T20:16:35.929Z,61.49
2022-08-28T20:19:05.205Z,61.54
2022-08-28T20:21:36.999Z,61.37
2022-08-28T20:24:10.772Z,62.03
2022-08-28T20:26:38.449Z,61.63
2022-08-28T20:29:07.768Z,61.60
2022-08-28T20:31:37.964Z,61.84
2022-08-28T20:34:05.325Z,61.72
2022-08-28T20:36:33.244Z,61.75
2022-08-28T20:39:01.286Z,61.58
2022-08-28T20:41:28.764Z,62.09
2022-08-28T20:43:56.244Z,62.43
2022-08-28T20:46:23.990Z,62.70
2022-08-28T20:48:51.244Z,62.41
2022-08-28T20:51:38.886Z,62.46
2022-08-28T20:54:06.168Z,62.68
2022-08-28T20:56:33.407Z,63.35
2022-08-28T20:59:00.812Z,63.20
2022-08-28T21:01:28.161Z,63.52
2022-08-28T21:03:55.733Z,63.70
2022-08-28T21:06:23.044Z,63.69
2022-08-28T21:08:50.528Z,63.08
2022-08-28T21:11:18.097Z,63.03
2022-08-28T21:13:45.569Z,62.69
2022-08-28T21:16:12.854Z,63.48
2022-08-28T21:18:49.258Z,63.49
2022-08-28T21:21:28.973Z,64.16
2022-08-28T21:23:56.806Z,63.89
2022-08-28T21:26:24.125Z,64.37
2022-08-28T21:28:52.566Z,64.17
2022-08-28T21:31:21.089Z,64.17
2022-08-28T21:33:48.406Z,64.76
2022-08-28T21:36:18.565Z,65.08
2022-08-28T21:38:45.893Z,65.25
2022-08-28T21:41:14.893Z,64.71
2022-08-28T21:43:44.005Z,64.78
2022-08-28T21:46:13.728Z,65.00
2022-08-28T21:48:42.207Z,64.98
2022-08-28T21:51:12.367Z,65.28
2022-08-28T21:53:40.806Z,64.63
2022-08-28T21:56:09.245Z,64.77
2022-08-28T21:58:41.687Z,64.65
2022-08-28T22:01:13.451Z,64.77
2022-08-28T22:03:41.925Z,64.61
2022-08-28T22:06:15.889Z,64.72
2022-08-28T22:08:43.684Z,64.79
2022-08-28T22:11:11.369Z,64.67
2022-08-28T22:13:38.726Z,64.74
2022-08-28T22:16:07.448Z,64.53
2022-08-28T22:18:35.765Z,64.26
2022-08-28T22:21:21.645Z,63.99
2022-08-28T22:23:49.369Z,63.67
2022-08-28T22:26:21.005Z,63.59
2022-08-28T22:28:48.764Z,62.92
2022-08-28T22:31:16.130Z,62.92
2022-08-28T22:33:45.766Z,62.66
2022-08-28T22:36:13.405Z,62.35
2022-08-28T22:38:41.526Z,61.94
2022-08-28T22:41:14.644Z,61.83
2022-08-28T22:43:41.925Z,61.54
2022-08-28T22:46:09.862Z,61.19
2022-08-28T22:48:37.073Z,61.58
2022-08-28T22:51:07.846Z,61.63
2022-08-28T22:53:36.368Z,61.23
2022-08-28T22:56:04.645Z,60.87
2022-08-28T22:58:33.165Z,61.21
2022-08-28T23:01:05.681Z,60.87
2022-08-28T23:03:33.060Z,60.61
2022-08-28T23:06:00.105Z,60.77
2022-08-28T23:08:31.947Z,60.53
2022-08-28T23:11:01.131Z,61.25
2022-08-28T23:13:28.760Z,61.02
2022-08-28T23:15:55.753Z,61.19
2022-08-28T23:18:23.008Z,61.08
2022-08-28T23:20:51.446Z,61.12
2022-08-28T23:23:19.674Z,60.94
2022-08-28T23:25:46.773Z,61.64
2022-08-28T23:28:13.753Z,61.65
2022-08-28T23:30:44.051Z,61.56
2022-08-28T23:33:23.729Z,61.56
2022-08-28T23:35:52.325Z,61.83
2022-08-28T23:38:19.386Z,62.22
2022-08-28T23:40:48.321Z,62.33
2022-08-28T23:43:18.525Z,62.18
2022-08-28T23:45:45.667Z,62.23
2022-08-28T23:48:15.668Z,62.35
2022-08-28T23:50:43.324Z,61.90
2022-08-28T23:53:11.284Z,61.89
2022-08-28T23:55:38.584Z,61.84
2022-08-28T23:58:06.264Z,61.58
